createdAt,value
2023-04-27T00:01:00.073Z,7.33
2023-04-27T00:03:26.895Z,7.32
2023-04-27T00:05:53.678Z,7.28
2023-04-27T00:08:20.127Z,7.32
2023-04-27T00:10:46.543Z,7.37
2023-04-27T00:13:12.983Z,7.36
2023-04-27T00:15:39.497Z,7.28
2023-04-27T00:18:06.178Z,7.34
2023-04-27T00:20:33.808Z,7.32
2023-04-27T00:23:00.223Z,7.31
2023-04-27T00:25:26.703Z,7.26
2023-04-27T00:27:53.218Z,7.31
2023-04-27T00:30:19.875Z,7.34
2023-04-27T00:32:46.348Z,7.33
2023-04-27T00:35:16.270Z,7.32
2023-04-27T00:37:42.710Z,7.27
2023-04-27T00:40:09.518Z,7.30
2023-04-27T00:42:36.534Z,7.28
2023-04-27T00:45:04.062Z,7.22
2023-04-27T00:47:30.931Z,7.19
2023-04-27T00:49:57.471Z,7.18
2023-04-27T00:52:25.993Z,7.14
2023-04-27T00:54:53.640Z,7.19
2023-04-27T00:57:21.323Z,7.22
2023-04-27T00:59:47.811Z,7.28
2023-04-27T01:02:14.898Z,7.32
2023-04-27T01:04:41.526Z,7.34
2023-04-27T01:07:08.152Z,7.32
2023-04-27T01:09:34.637Z,7.33
2023-04-27T01:12:01.289Z,7.28
2023-04-27T01:14:27.769Z,7.29
2023-04-27T01:16:54.433Z,7.30
2023-04-27T01:19:20.979Z,7.33
2023-04-27T01:21:47.396Z,7.33
2023-04-27T01:24:13.887Z,7.38
2023-04-27T01:26:40.541Z,7.34
2023-04-27T01:29:07.072Z,7.34
2023-04-27T01:31:33.556Z,7.34
2023-04-27T01:34:00.208Z,7.32
2023-04-27T01:36:27.636Z,7.33
2023-04-27T01:38:55.781Z,7.30
2023-04-27T01:41:22.238Z,7.29
2023-04-27T01:43:48.634Z,7.31
2023-04-27T01:46:15.824Z,7.31
2023-04-27T01:48:42.365Z,7.32
2023-04-27T01:51:10.938Z,7.30
2023-04-27T01:53:37.418Z,7.26
2023-04-27T01:56:04.031Z,7.27
2023-04-27T01:58:32.812Z,7.28
2023-04-27T02:00:59.351Z,7.28
2023-04-27T02:03:26.167Z,7.24
2023-04-27T02:05:52.911Z,7.24
2023-04-27T02:08:19.389Z,7.25
2023-04-27T02:10:45.937Z,7.25
2023-04-27T02:13:12.500Z,7.23
2023-04-27T02:15:38.925Z,7.23
2023-04-27T02:18:05.644Z,7.24
2023-04-27T02:20:33.150Z,7.25
2023-04-27T02:23:02.179Z,7.26
2023-04-27T02:25:28.985Z,7.23
2023-04-27T02:27:55.914Z,7.23
2023-04-27T02:30:23.043Z,7.25
2023-04-27T02:32:50.055Z,7.23
2023-04-27T02:35:16.730Z,7.21
2023-04-27T02:37:43.436Z,7.16
2023-04-27T02:40:11.532Z,7.14
2023-04-27T02:42:41.108Z,7.16
2023-04-27T02:45:11.501Z,7.14
2023-04-27T02:47:38.179Z,7.21
2023-04-27T02:50:06.021Z,7.20
2023-04-27T02:52:34.415Z,7.22
2023-04-27T02:55:01.128Z,7.17
2023-04-27T02:57:28.409Z,7.18
2023-04-27T02:59:54.880Z,7.21
2023-04-27T03:02:21.476Z,7.23
2023-04-27T03:04:53.465Z,7.28
2023-04-27T03:07:20.019Z,7.28
2023-04-27T03:09:46.455Z,7.28
2023-04-27T03:12:12.871Z,7.24
2023-04-27T03:14:39.452Z,7.20
2023-04-27T03:17:05.945Z,7.23
2023-04-27T03:19:32.553Z,7.26
2023-04-27T03:21:59.298Z,7.27
2023-04-27T03:24:25.894Z,7.29
2023-04-27T03:26:52.469Z,7.27
2023-04-27T03:29:21.196Z,7.32
2023-04-27T03:31:47.864Z,7.30
2023-04-27T03:34:14.606Z,7.28
2023-04-27T03:36:41.403Z,7.26
2023-04-27T03:39:09.972Z,7.30
2023-04-27T03:41:36.649Z,7.32
2023-04-27T03:44:03.513Z,7.31
2023-04-27T03:46:30.191Z,7.35
2023-04-27T03:48:56.957Z,7.37
2023-04-27T03:51:24.427Z,7.38
2023-04-27T03:53:50.961Z,7.35
2023-04-27T03:56:19.044Z,7.31
2023-04-27T03:58:46.824Z,7.32
2023-04-27T04:01:21.926Z,7.31
2023-04-27T04:03:50.706Z,7.32
2023-04-27T04:06:17.807Z,7.34
2023-04-27T04:08:45.796Z,7.37
2023-04-27T04:11:12.817Z,7.37
2023-04-27T04:13:39.662Z,7.34
2023-04-27T04:16:08.815Z,7.34
2023-04-27T04:18:37.022Z,7.35
2023-04-27T04:21:04.777Z,7.40
2023-04-27T04:23:32.852Z,7.42
2023-04-27T04:25:59.849Z,7.39
2023-04-27T04:28:31.097Z,7.39
2023-04-27T04:30:59.118Z,7.40
2023-04-27T04:33:26.496Z,7.38
2023-04-27T04:35:53.807Z,7.41
2023-04-27T04:38:21.749Z,7.40
2023-04-27T04:40:48.952Z,7.41
2023-04-27T04:43:15.607Z,7.41
2023-04-27T04:45:42.681Z,7.43
2023-04-27T04:48:10.313Z,7.44
2023-04-27T04:50:37.143Z,7.45
2023-04-27T04:53:03.887Z,7.49
2023-04-27T04:55:31.564Z,7.51
2023-04-27T04:57:58.355Z,7.52
2023-04-27T05:00:28.013Z,7.56
2023-04-27T05:02:54.720Z,7.60
2023-04-27T05:05:21.454Z,7.63
2023-04-27T05:07:47.966Z,7.68
2023-04-27T05:10:14.641Z,7.65
2023-04-27T05:12:41.414Z,7.68
2023-04-27T05:15:08.529Z,7.71
2023-04-27T05:17:35.151Z,7.79
2023-04-27T05:20:01.845Z,7.80
2023-04-27T05:22:28.479Z,7.83
2023-04-27T05:24:55.870Z,7.87
2023-04-27T05:27:22.546Z,7.90
2023-04-27T05:29:49.256Z,7.92
2023-04-27T05:32:15.728Z,7.94
2023-04-27T05:34:45.663Z,8.02
2023-04-27T05:37:13.988Z,8.11
2023-04-27T05:39:40.890Z,8.17
2023-04-27T05:42:07.385Z,8.17
2023-04-27T05:44:33.839Z,8.19
2023-04-27T05:47:00.454Z,8.27
2023-04-27T05:49:27.129Z,8.34
2023-04-27T05:51:53.606Z,8.43
2023-04-27T05:54:20.331Z,8.48
2023-04-27T05:56:47.121Z,8.52
2023-04-27T05:59:13.754Z,8.59
2023-04-27T06:01:40.334Z,8.64
2023-04-27T06:04:07.218Z,8.71
2023-04-27T06:06:35.422Z,8.78
2023-04-27T06:09:02.117Z,8.85
2023-04-27T06:11:28.569Z,8.93
2023-04-27T06:13:55.210Z,9.03
2023-04-27T06:16:21.958Z,9.09
2023-04-27T06:18:50.538Z,9.16
2023-04-27T06:21:18.044Z,9.21
2023-04-27T06:23:44.801Z,9.27
2023-04-27T06:26:11.719Z,9.33
2023-04-27T06:28:38.424Z,9.33
2023-04-27T06:31:06.433Z,9.38
2023-04-27T06:33:33.341Z,9.43
2023-04-27T06:36:01.266Z,9.53
2023-04-27T06:38:27.759Z,9.60
2023-04-27T06:40:54.195Z,9.78
2023-04-27T06:43:20.687Z,9.87
2023-04-27T06:45:47.220Z,9.97
2023-04-27T06:48:13.776Z,10.10
2023-04-27T06:50:40.471Z,10.22
2023-04-27T06:53:06.933Z,10.36
2023-04-27T06:55:33.367Z,10.46
2023-04-27T06:57:59.899Z,10.39
2023-04-27T07:00:27.029Z,10.38
2023-04-27T07:02:53.572Z,10.41
2023-04-27T07:05:20.250Z,10.50
2023-04-27T07:07:46.681Z,10.62
2023-04-27T07:10:13.136Z,10.71
2023-04-27T07:12:40.206Z,10.85
2023-04-27T07:15:07.493Z,10.91
2023-04-27T07:17:34.017Z,11.06
2023-04-27T07:20:05.876Z,11.23
2023-04-27T07:22:33.035Z,11.29
2023-04-27T07:24:59.514Z,11.32
2023-04-27T07:27:26.588Z,11.58
2023-04-27T07:29:53.387Z,11.67
2023-04-27T07:32:19.935Z,11.61
2023-04-27T07:34:53.641Z,11.47
2023-04-27T07:37:21.736Z,11.51
2023-04-27T07:39:54.634Z,11.55
2023-04-27T07:42:25.009Z,11.49
2023-04-27T07:44:52.359Z,11.48
2023-04-27T07:47:18.894Z,11.54
2023-04-27T07:49:46.281Z,11.65
2023-04-27T07:52:12.714Z,11.81
2023-04-27T07:54:39.816Z,11.87
2023-04-27T07:57:11.441Z,11.92
2023-04-27T07:59:38.200Z,12.03
2023-04-27T08:02:18.275Z,12.21
2023-04-27T08:04:46.638Z,12.42
2023-04-27T08:07:14.126Z,12.32
2023-04-27T08:09:40.752Z,12.22
2023-04-27T08:12:07.279Z,12.20
2023-04-27T08:14:36.776Z,12.43
2023-04-27T08:17:03.404Z,12.25
2023-04-27T08:19:30.027Z,12.20
2023-04-27T08:21:56.694Z,12.15
2023-04-27T08:24:23.154Z,12.33
2023-04-27T08:26:49.642Z,12.38
2023-04-27T08:29:27.194Z,12.29
2023-04-27T08:31:57.157Z,12.37
2023-04-27T08:34:24.032Z,12.41
2023-04-27T08:36:50.648Z,12.52
2023-04-27T08:39:18.028Z,12.40
2023-04-27T08:41:44.649Z,12.42
2023-04-27T08:44:11.111Z,12.20
2023-04-27T08:46:38.606Z,12.29
2023-04-27T08:49:06.428Z,12.48
2023-04-27T08:51:33.376Z,12.88
2023-04-27T08:54:00.128Z,13.10
2023-04-27T08:56:28.253Z,13.29
2023-04-27T08:58:56.226Z,13.47
2023-04-27T09:01:24.391Z,13.52
2023-04-27T09:04:02.300Z,13.67
2023-04-27T09:06:31.525Z,13.82
2023-04-27T09:08:58.106Z,14.02
2023-04-27T09:11:35.960Z,14.16
2023-04-27T09:14:15.640Z,14.33
2023-04-27T09:16:43.287Z,14.46
2023-04-27T09:19:10.032Z,14.38
2023-04-27T09:21:36.482Z,14.32
2023-04-27T09:24:13.763Z,14.43
2023-04-27T09:26:42.737Z,14.58
2023-04-27T09:29:09.378Z,14.77
2023-04-27T09:31:36.459Z,14.78
2023-04-27T09:34:03.807Z,14.81
2023-04-27T09:36:32.294Z,14.93
2023-04-27T09:38:59.059Z,14.93
2023-04-27T09:41:26.604Z,14.89
2023-04-27T09:43:57.006Z,14.91
2023-04-27T09:46:25.796Z,14.70
2023-04-27T09:48:52.929Z,14.52
2023-04-27T09:51:19.365Z,14.44
2023-04-27T09:53:51.581Z,14.39
2023-04-27T09:56:44.418Z,14.39
2023-04-27T09:59:26.794Z,14.42
2023-04-27T10:02:01.371Z,14.47
2023-04-27T10:04:34.604Z,14.50
2023-04-27T10:07:07.542Z,14.27
2023-04-27T10:09:41.377Z,14.40
2023-04-27T10:12:28.304Z,14.51
2023-04-27T10:15:11.108Z,14.69
2023-04-27T10:17:37.824Z,15.04
2023-04-27T10:20:07.391Z,15.62
2023-04-27T10:22:49.966Z,15.71
2023-04-27T10:25:17.805Z,15.85
2023-04-27T10:27:48.729Z,16.08
2023-04-27T10:30:18.159Z,16.20
2023-04-27T10:32:58.540Z,16.05
2023-04-27T10:35:55.742Z,15.86
2023-04-27T10:38:28.684Z,15.57
2023-04-27T10:41:03.365Z,15.35
2023-04-27T10:43:32.142Z,15.19
2023-04-27T10:46:13.194Z,15.11
2023-04-27T10:48:43.894Z,15.19
2023-04-27T10:51:15.376Z,15.41
2023-04-27T10:53:42.079Z,15.38
2023-04-27T10:56:08.689Z,15.32
2023-04-27T10:58:48.197Z,15.45
2023-04-27T11:01:25.802Z,15.50
2023-04-27T11:03:59.825Z,15.28
2023-04-27T11:06:28.396Z,15.45
2023-04-27T11:08:54.970Z,15.59
2023-04-27T11:11:22.542Z,15.66
2023-04-27T11:13:49.822Z,15.89
2023-04-27T11:16:16.809Z,16.30
2023-04-27T11:18:43.292Z,16.62
2023-04-27T11:21:14.985Z,16.72
2023-04-27T11:23:42.250Z,16.76
2023-04-27T11:26:22.127Z,16.62
2023-04-27T11:29:05.456Z,16.44
2023-04-27T11:31:49.327Z,16.36
2023-04-27T11:34:23.982Z,16.00
2023-04-27T11:39:38.952Z,15.82
2023-04-27T11:42:16.965Z,15.79
2023-04-27T11:44:43.578Z,15.74
2023-04-27T11:47:18.851Z,15.94
2023-04-27T11:49:49.673Z,16.21
2023-04-27T11:52:16.631Z,16.39
2023-04-27T11:54:52.881Z,16.60
2023-04-27T11:57:30.833Z,16.72
2023-04-27T12:00:00.118Z,16.87
2023-04-27T12:02:27.959Z,16.73
2023-04-27T12:04:55.044Z,16.62
2023-04-27T12:07:21.659Z,16.74
2023-04-27T12:09:48.636Z,16.92
2023-04-27T12:12:18.169Z,17.30
2023-04-27T12:14:45.312Z,17.65
2023-04-27T12:17:11.984Z,17.54
2023-04-27T12:19:38.475Z,17.31
2023-04-27T12:22:05.368Z,17.06
2023-04-27T12:24:32.299Z,16.76
2023-04-27T12:26:59.415Z,16.64
2023-04-27T12:29:25.840Z,16.65
2023-04-27T12:31:53.213Z,16.62
2023-04-27T12:34:19.786Z,16.64
2023-04-27T12:36:46.968Z,16.75
2023-04-27T12:39:19.671Z,16.89
2023-04-27T12:41:47.766Z,17.08
2023-04-27T12:44:15.336Z,17.37
2023-04-27T12:46:43.206Z,17.62
2023-04-27T12:49:11.116Z,17.75
2023-04-27T12:51:37.720Z,17.83
2023-04-27T12:54:04.701Z,17.78
2023-04-27T12:56:31.347Z,17.75
2023-04-27T12:58:58.330Z,17.77
2023-04-27T13:01:27.558Z,17.82
2023-04-27T13:03:55.787Z,17.73
2023-04-27T13:06:22.840Z,17.69
2023-04-27T13:08:50.860Z,17.48
2023-04-27T13:11:18.329Z,17.23
2023-04-27T13:13:45.794Z,17.04
2023-04-27T13:16:12.988Z,17.07
2023-04-27T13:18:40.630Z,17.13
2023-04-27T13:21:08.364Z,17.13
2023-04-27T13:23:34.813Z,17.13
2023-04-27T13:26:01.467Z,17.16
2023-04-27T13:28:27.949Z,17.33
2023-04-27T13:30:54.511Z,18.20
2023-04-27T13:33:23.509Z,19.08
2023-04-27T13:35:51.246Z,22.00
2023-04-27T13:38:17.777Z,27.04
2023-04-27T13:40:44.340Z,25.49
2023-04-27T13:43:10.968Z,23.84
2023-04-27T13:45:37.432Z,22.24
2023-04-27T13:48:04.041Z,21.33
2023-04-27T13:50:30.602Z,20.60
2023-04-27T13:52:57.097Z,20.07
2023-04-27T13:55:23.752Z,19.46
2023-04-27T13:57:50.376Z,19.15
2023-04-27T14:00:17.076Z,19.09
2023-04-27T14:02:43.738Z,18.93
2023-04-27T14:05:10.397Z,18.88
2023-04-27T14:07:36.957Z,19.16
2023-04-27T14:10:04.423Z,19.29
2023-04-27T14:12:34.107Z,19.21
2023-04-27T14:15:00.652Z,19.29
2023-04-27T14:17:27.075Z,19.44
2023-04-27T14:19:53.502Z,19.66
2023-04-27T14:22:19.947Z,19.77
2023-04-27T14:24:46.519Z,19.76
2023-04-27T14:27:12.962Z,21.51
2023-04-27T14:29:39.438Z,21.69
2023-04-27T14:32:06.316Z,20.67
2023-04-27T14:34:32.942Z,20.62
2023-04-27T14:36:59.394Z,20.21
2023-04-27T14:39:28.053Z,20.01
2023-04-27T14:41:54.568Z,20.26
2023-04-27T14:44:21.041Z,20.63
2023-04-27T14:46:47.508Z,20.36
2023-04-27T14:49:14.270Z,20.26
2023-04-27T14:51:43.355Z,20.03
2023-04-27T14:54:10.050Z,19.80
2023-04-27T14:56:36.552Z,19.73
2023-04-27T14:59:03.158Z,19.69
2023-04-27T15:01:29.684Z,19.62
2023-04-27T15:03:57.823Z,19.67
2023-04-27T15:06:28.112Z,19.79
2023-04-27T15:08:55.289Z,19.72
2023-04-27T15:11:22.060Z,19.59
2023-04-27T15:13:48.874Z,19.65
2023-04-27T15:16:15.559Z,19.36
2023-04-27T15:18:42.288Z,19.28
2023-04-27T15:21:08.771Z,19.09
2023-04-27T15:23:37.071Z,18.93
2023-04-27T15:26:03.619Z,19.23
2023-04-27T15:28:30.263Z,19.38
2023-04-27T15:30:56.782Z,19.68
2023-04-27T15:33:23.308Z,20.49
2023-04-27T15:35:50.016Z,20.10
2023-04-27T15:38:17.830Z,19.82
2023-04-27T15:40:44.359Z,19.65
2023-04-27T15:43:10.948Z,19.57
2023-04-27T15:45:37.564Z,19.31
2023-04-27T15:48:04.315Z,19.08
2023-04-27T15:50:30.919Z,18.92
2023-04-27T15:52:57.391Z,18.73
2023-04-27T15:55:24.152Z,18.78
2023-04-27T15:57:50.700Z,18.96
2023-04-27T16:00:18.843Z,19.10
2023-04-27T16:02:46.341Z,19.20
2023-04-27T16:05:13.054Z,19.17
2023-04-27T16:07:39.874Z,19.74
2023-04-27T16:10:07.299Z,20.34
2023-04-27T16:12:33.818Z,20.27
2023-04-27T16:15:00.843Z,19.80
2023-04-27T16:17:29.020Z,20.45
2023-04-27T16:19:55.560Z,23.54
2023-04-27T16:22:22.268Z,25.12
2023-04-27T16:24:48.859Z,26.34
2023-04-27T16:27:17.145Z,25.76
2023-04-27T16:29:43.710Z,23.98
2023-04-27T16:32:10.962Z,25.91
2023-04-27T16:34:38.099Z,27.28
2023-04-27T16:37:05.871Z,28.15
2023-04-27T16:39:32.788Z,28.68
2023-04-27T16:41:59.236Z,29.25
2023-04-27T16:44:26.153Z,29.85
2023-04-27T16:46:52.683Z,30.14
2023-04-27T16:49:19.154Z,29.77
2023-04-27T16:51:45.681Z,29.46
2023-04-27T16:54:12.704Z,29.56
2023-04-27T16:56:39.155Z,30.28
2023-04-27T16:59:05.962Z,30.58
2023-04-27T17:01:32.466Z,29.68
2023-04-27T17:04:02.225Z,28.72
2023-04-27T17:06:29.925Z,27.47
2023-04-27T17:08:57.502Z,26.38
2023-04-27T17:11:24.262Z,25.24
2023-04-27T17:13:50.868Z,24.37
2023-04-27T17:16:18.678Z,25.05
2023-04-27T17:18:46.917Z,26.00
2023-04-27T17:21:13.828Z,26.05
2023-04-27T17:23:43.123Z,25.26
2023-04-27T17:26:10.599Z,24.19
2023-04-27T17:28:37.084Z,23.29
2023-04-27T17:31:03.601Z,22.43
2023-04-27T17:33:30.243Z,21.74
2023-04-27T17:35:56.737Z,21.08
2023-04-27T17:38:23.179Z,20.56
2023-04-27T17:40:49.646Z,20.04
2023-04-27T17:43:16.224Z,19.71
2023-04-27T17:45:42.809Z,19.36
2023-04-27T17:48:09.282Z,18.96
2023-04-27T17:50:37.468Z,18.57
2023-04-27T17:53:03.928Z,18.26
2023-04-27T17:55:30.340Z,17.77
2023-04-27T17:57:56.755Z,17.47
2023-04-27T18:00:23.388Z,17.25
2023-04-27T18:02:50.149Z,17.03
2023-04-27T18:05:17.238Z,16.78
2023-04-27T18:07:46.112Z,16.45
2023-04-27T18:10:12.915Z,16.19
2023-04-27T18:12:39.354Z,16.11
2023-04-27T18:15:09.347Z,15.90
2023-04-27T18:17:36.467Z,15.68
2023-04-27T18:20:09.423Z,15.49
2023-04-27T18:22:38.368Z,15.29
2023-04-27T18:25:05.205Z,15.06
2023-04-27T18:27:32.781Z,14.87
2023-04-27T18:29:59.333Z,14.67
2023-04-27T18:32:25.854Z,14.62
2023-04-27T18:34:52.423Z,14.52
2023-04-27T18:37:18.861Z,14.36
2023-04-27T18:39:45.317Z,14.10
2023-04-27T18:42:11.764Z,14.08
2023-04-27T18:44:38.227Z,14.01
2023-04-27T18:47:04.749Z,13.84
2023-04-27T18:49:31.186Z,13.68
2023-04-27T18:51:57.641Z,13.55
2023-04-27T18:54:24.071Z,13.41
2023-04-27T18:56:52.970Z,13.31
2023-04-27T18:59:20.234Z,13.22
2023-04-27T19:01:46.870Z,13.22
2023-04-27T19:04:14.473Z,13.21
2023-04-27T19:06:41.118Z,13.11
2023-04-27T19:09:09.113Z,13.10
2023-04-27T19:11:35.986Z,13.03
2023-04-27T19:14:02.438Z,12.95
2023-04-27T19:16:29.005Z,12.85
2023-04-27T19:18:55.544Z,12.78
2023-04-27T19:21:21.977Z,12.75
2023-04-27T19:23:48.468Z,12.64
2023-04-27T19:26:15.056Z,12.57
2023-04-27T19:28:41.539Z,12.52
2023-04-27T19:31:08.351Z,12.48
2023-04-27T19:33:34.949Z,12.42
2023-04-27T19:36:01.486Z,12.35
2023-04-27T19:38:27.912Z,12.30
2023-04-27T19:40:54.339Z,12.23
2023-04-27T19:43:20.884Z,12.22
2023-04-27T19:45:49.303Z,12.21
2023-04-27T19:48:16.087Z,12.17
2023-04-27T19:50:43.635Z,12.11
2023-04-27T19:53:10.839Z,12.04
2023-04-27T19:55:37.781Z,12.02
2023-04-27T19:58:04.221Z,11.96
2023-04-27T20:00:30.689Z,11.90
2023-04-27T20:02:57.200Z,11.87
2023-04-27T20:05:24.407Z,11.80
2023-04-27T20:07:51.047Z,11.80
2023-04-27T20:10:17.616Z,11.77
2023-04-27T20:12:54.331Z,11.69
2023-04-27T20:15:22.372Z,11.65
2023-04-27T20:17:48.802Z,11.61
2023-04-27T20:20:15.323Z,11.58
2023-04-27T20:22:41.821Z,11.58
2023-04-27T20:25:08.651Z,11.54
2023-04-27T20:27:35.629Z,11.56
2023-04-27T20:30:02.358Z,11.52
2023-04-27T20:32:28.821Z,11.42
2023-04-27T20:34:55.280Z,11.41
2023-04-27T20:37:23.066Z,11.37
2023-04-27T20:39:49.517Z,11.33
2023-04-27T20:42:16.077Z,11.27
2023-04-27T20:44:42.560Z,11.29
2023-04-27T20:47:09.002Z,11.26
2023-04-27T20:49:35.875Z,11.26
2023-04-27T20:52:03.034Z,11.19
2023-04-27T20:54:32.789Z,11.16
2023-04-27T20:57:01.765Z,11.20
2023-04-27T20:59:28.147Z,11.25
2023-04-27T21:01:54.561Z,11.23
2023-04-27T21:04:21.261Z,11.08
2023-04-27T21:06:47.913Z,11.01
2023-04-27T21:09:14.333Z,10.95
2023-04-27T21:11:40.930Z,10.96
2023-04-27T21:14:07.397Z,11.01
2023-04-27T21:16:33.894Z,11.02
2023-04-27T21:19:00.379Z,10.99
2023-04-27T21:21:26.983Z,10.93
2023-04-27T21:24:04.092Z,10.85
2023-04-27T21:26:34.221Z,10.88
2023-04-27T21:29:01.327Z,10.89
2023-04-27T21:31:27.782Z,10.93
2023-04-27T21:33:54.210Z,10.94
2023-04-27T21:36:20.608Z,10.92
2023-04-27T21:38:47.218Z,10.82
2023-04-27T21:41:13.659Z,10.78
2023-04-27T21:43:42.017Z,10.81
2023-04-27T21:46:09.176Z,10.77
2023-04-27T21:48:36.161Z,10.75
2023-04-27T21:51:02.876Z,10.73
2023-04-27T21:53:30.355Z,10.77
2023-04-27T21:55:57.130Z,10.75
2023-04-27T21:58:24.221Z,10.75
2023-04-27T22:00:50.836Z,10.76
2023-04-27T22:03:17.746Z,10.75
2023-04-27T22:05:45.262Z,10.71
2023-04-27T22:08:12.126Z,10.69
2023-04-27T22:10:38.687Z,10.67
2023-04-27T22:13:17.781Z,10.62
2023-04-27T22:15:45.819Z,10.54
2023-04-27T22:18:14.221Z,10.50
2023-04-27T22:20:40.736Z,10.43
2023-04-27T22:23:07.627Z,10.47
2023-04-27T22:25:34.073Z,10.48
2023-04-27T22:28:01.502Z,10.47
2023-04-27T22:30:28.818Z,10.49
2023-04-27T22:32:56.273Z,10.41
2023-04-27T22:35:27.248Z,10.35
2023-04-27T22:37:59.022Z,10.28
2023-04-27T22:40:25.885Z,10.26
2023-04-27T22:42:53.381Z,10.22
2023-04-27T22:45:19.868Z,10.18
2023-04-27T22:47:46.476Z,10.17
2023-04-27T22:50:13.406Z,10.19
2023-04-27T22:52:42.156Z,10.21
2023-04-27T22:55:09.923Z,10.23
2023-04-27T22:57:36.695Z,10.22
2023-04-27T23:00:05.356Z,10.22
2023-04-27T23:02:32.345Z,10.19
2023-04-27T23:04:59.096Z,10.13
2023-04-27T23:07:25.562Z,10.05
2023-04-27T23:09:52.736Z,10.08
2023-04-27T23:12:20.651Z,10.08
2023-04-27T23:14:47.174Z,10.02
2023-04-27T23:17:15.431Z,9.99
2023-04-27T23:19:41.988Z,10.00
2023-04-27T23:22:08.455Z,9.96
2023-04-27T23:24:34.891Z,9.98
2023-04-27T23:27:01.383Z,9.95
2023-04-27T23:29:27.867Z,9.94
2023-04-27T23:31:54.367Z,9.95
2023-04-27T23:34:20.767Z,9.90
2023-04-27T23:36:47.317Z,9.87
2023-04-27T23:39:13.754Z,9.82
2023-04-27T23:41:40.164Z,9.81
2023-04-27T23:44:06.844Z,9.80
2023-04-27T23:46:33.999Z,9.82
2023-04-27T23:49:00.507Z,9.79
2023-04-27T23:51:27.136Z,9.79
2023-04-27T23:53:53.547Z,9.80
2023-04-27T23:56:20.117Z,9.79
2023-04-27T23:58:46.571Z,9.79
